createdAt,value
2017-11-12T00:00:45.727Z,35.43
2017-11-12T00:03:12.309Z,34.00
2017-11-12T00:05:38.998Z,34.70
2017-11-12T00:08:05.711Z,36.63
2017-11-12T00:10:32.426Z,40.13
2017-11-12T00:12:59.298Z,36.97
2017-11-12T00:15:25.901Z,34.33
2017-11-12T00:17:52.469Z,35.40
2017-11-12T00:20:19.054Z,42.50
2017-11-12T00:22:45.643Z,38.90
2017-11-12T00:25:12.232Z,39.03
2017-11-12T00:27:38.829Z,40.00
2017-11-12T00:30:05.413Z,41.53
2017-11-12T00:32:31.987Z,39.40
2017-11-12T00:34:58.579Z,39.20
2017-11-12T00:37:25.161Z,40.07
2017-11-12T00:39:51.748Z,35.57
2017-11-12T00:42:18.329Z,39.10
2017-11-12T00:44:44.927Z,38.30
2017-11-12T00:47:11.510Z,39.00
2017-11-12T00:49:38.111Z,37.10
2017-11-12T00:52:04.690Z,43.10
2017-11-12T00:54:31.274Z,36.53
2017-11-12T00:56:57.862Z,39.70
2017-11-12T00:59:24.448Z,37.87
2017-11-12T01:01:51.042Z,33.23
2017-11-12T01:04:17.630Z,37.83
2017-11-12T01:06:44.221Z,37.90
2017-11-12T01:09:10.809Z,39.20
2017-11-12T01:11:37.398Z,39.23
2017-11-12T01:14:03.984Z,33.57
2017-11-12T01:16:30.561Z,36.50
2017-11-12T01:18:57.146Z,37.63
2017-11-12T01:21:23.727Z,35.17
2017-11-12T01:23:50.341Z,34.93
2017-11-12T01:26:16.906Z,39.70
2017-11-12T01:28:43.492Z,38.97
2017-11-12T01:31:10.082Z,34.40
2017-11-12T01:33:36.662Z,39.70
2017-11-12T01:36:03.250Z,38.60
2017-11-12T01:38:29.834Z,43.77
2017-11-12T01:40:56.445Z,42.47
2017-11-12T01:43:23.012Z,40.60
2017-11-12T01:45:49.624Z,47.13
2017-11-12T01:48:16.217Z,46.37
2017-11-12T01:50:42.794Z,48.80
2017-11-12T01:53:09.383Z,42.57
2017-11-12T01:55:35.978Z,43.10
2017-11-12T01:58:02.582Z,48.13
2017-11-12T02:00:29.167Z,40.20
2017-11-12T02:02:55.798Z,42.60
2017-11-12T02:05:22.386Z,45.13
2017-11-12T02:07:48.990Z,46.60
2017-11-12T02:10:15.575Z,58.60
2017-11-12T02:12:42.158Z,49.33
2017-11-12T02:15:08.749Z,51.10
2017-11-12T02:17:35.355Z,53.20
2017-11-12T02:20:01.941Z,48.10
2017-11-12T02:22:28.540Z,51.30
2017-11-12T02:24:55.123Z,49.30
2017-11-12T02:27:21.718Z,57.00
2017-11-12T02:29:48.315Z,51.10
2017-11-12T02:32:14.917Z,50.20
2017-11-12T02:34:41.498Z,47.93
2017-11-12T02:37:08.095Z,48.50
2017-11-12T02:39:34.691Z,46.50
2017-11-12T02:42:01.283Z,45.63
2017-11-12T02:44:27.867Z,48.00
2017-11-12T02:46:54.451Z,46.87
2017-11-12T02:49:21.031Z,48.77
2017-11-12T02:51:47.623Z,48.40
2017-11-12T02:54:14.211Z,49.63
2017-11-12T02:56:40.804Z,49.60
2017-11-12T02:59:07.394Z,48.37
2017-11-12T03:01:33.969Z,45.87
2017-11-12T03:04:00.562Z,44.97
2017-11-12T03:06:27.142Z,44.60
2017-11-12T03:08:53.755Z,41.53
2017-11-12T03:11:20.330Z,43.57
2017-11-12T03:13:46.906Z,49.43
2017-11-12T03:16:13.494Z,40.90
2017-11-12T03:18:40.085Z,41.07
2017-11-12T03:21:06.666Z,37.57
2017-11-12T03:23:33.248Z,39.27
2017-11-12T03:25:59.845Z,43.90
2017-11-12T03:28:26.431Z,44.30
2017-11-12T03:30:53.030Z,43.23
2017-11-12T03:33:19.619Z,59.30
2017-11-12T03:35:46.198Z,39.40
2017-11-12T03:38:12.787Z,46.80
2017-11-12T03:40:39.367Z,47.90
2017-11-12T03:43:05.969Z,42.37
2017-11-12T03:45:32.546Z,38.63
2017-11-12T03:47:59.146Z,40.87
2017-11-12T03:50:25.726Z,40.67
2017-11-12T03:52:52.310Z,41.07
2017-11-12T03:55:18.894Z,39.53
2017-11-12T03:57:45.479Z,44.87
2017-11-12T04:00:12.061Z,39.70
2017-11-12T04:02:38.642Z,42.83
2017-11-12T04:05:05.246Z,40.77
2017-11-12T04:07:31.831Z,36.60
2017-11-12T04:09:58.410Z,38.13
2017-11-12T04:12:24.999Z,38.20
2017-11-12T04:14:51.584Z,34.83
2017-11-12T04:17:18.174Z,35.37
2017-11-12T04:19:44.741Z,34.20
2017-11-12T04:22:11.424Z,37.33
2017-11-12T04:24:37.986Z,46.07
2017-11-12T04:27:04.588Z,38.20
2017-11-12T04:29:31.170Z,37.27
2017-11-12T04:31:57.751Z,32.33
2017-11-12T04:34:24.338Z,35.27
2017-11-12T04:36:50.918Z,34.60
2017-11-12T04:39:17.567Z,30.20
2017-11-12T04:41:44.142Z,35.67
2017-11-12T04:44:10.734Z,31.10
2017-11-12T04:46:37.317Z,34.90
2017-11-12T04:49:03.895Z,32.07
2017-11-12T04:51:30.486Z,33.00
2017-11-12T04:53:57.066Z,35.33
2017-11-12T04:56:23.674Z,35.90
2017-11-12T04:58:50.254Z,32.77
2017-11-12T05:01:16.845Z,31.03
2017-11-12T05:03:43.426Z,35.00
2017-11-12T05:06:10.025Z,29.90
2017-11-12T05:08:36.603Z,35.07
2017-11-12T05:11:03.191Z,33.53
2017-11-12T05:13:29.786Z,27.77
2017-11-12T05:15:56.366Z,32.60
2017-11-12T05:18:22.978Z,32.03
2017-11-12T05:20:49.554Z,30.80
2017-11-12T05:23:16.157Z,35.50
2017-11-12T05:25:42.722Z,32.27
2017-11-12T05:28:09.306Z,30.80
2017-11-12T05:30:35.890Z,27.13
2017-11-12T05:33:02.470Z,26.27
2017-11-12T05:35:29.114Z,30.10
2017-11-12T05:37:55.698Z,27.27
2017-11-12T05:40:22.302Z,28.90
2017-11-12T05:42:48.882Z,30.33
2017-11-12T05:45:15.463Z,26.43
2017-11-12T05:47:42.054Z,28.70
2017-11-12T05:50:08.639Z,31.23
2017-11-12T05:52:35.231Z,29.93
2017-11-12T05:55:01.814Z,28.60
2017-11-12T05:57:28.406Z,25.80
2017-11-12T05:59:54.985Z,28.80
2017-11-12T06:02:21.587Z,30.80
2017-11-12T06:04:48.171Z,28.83
2017-11-12T06:07:14.757Z,29.97
2017-11-12T06:09:41.352Z,29.00
2017-11-12T06:12:07.930Z,29.50
2017-11-12T06:14:34.525Z,28.00
2017-11-12T06:17:01.106Z,23.03
2017-11-12T06:19:27.703Z,22.77
2017-11-12T06:21:54.294Z,24.90
2017-11-12T06:24:20.871Z,29.63
2017-11-12T06:26:47.468Z,26.67
2017-11-12T06:29:14.042Z,30.00
2017-11-12T06:31:40.631Z,28.90
2017-11-12T06:34:07.211Z,23.10
2017-11-12T06:36:33.806Z,27.00
2017-11-12T06:39:00.395Z,24.37
2017-11-12T06:41:26.993Z,22.13
2017-11-12T06:43:53.583Z,25.27
2017-11-12T06:46:20.163Z,29.30
2017-11-12T06:48:46.750Z,21.80
2017-11-12T06:51:13.331Z,20.80
2017-11-12T06:53:39.925Z,23.30
2017-11-12T06:56:06.506Z,26.87
2017-11-12T06:58:33.094Z,23.63
2017-11-12T07:00:59.686Z,24.03
2017-11-12T07:03:26.279Z,21.70
2017-11-12T07:05:52.862Z,19.07
2017-11-12T07:08:19.438Z,24.20
2017-11-12T07:10:46.027Z,22.57
2017-11-12T07:13:12.607Z,23.33
2017-11-12T07:15:39.206Z,20.83
2017-11-12T07:18:05.787Z,17.50
2017-11-12T07:20:32.370Z,19.20
2017-11-12T07:22:58.962Z,16.20
2017-11-12T07:25:25.543Z,17.40
2017-11-12T07:27:52.130Z,20.40
2017-11-12T07:30:18.718Z,19.83
2017-11-12T07:32:45.298Z,18.90
2017-11-12T07:35:11.873Z,16.53
2017-11-12T07:37:38.470Z,17.07
2017-11-12T07:40:05.198Z,17.07
2017-11-12T07:42:31.762Z,18.37
2017-11-12T07:44:58.351Z,17.17
2017-11-12T07:47:24.930Z,19.03
2017-11-12T07:49:51.514Z,19.90
2017-11-12T07:52:18.094Z,15.97
2017-11-12T07:54:44.683Z,15.27
2017-11-12T07:57:11.267Z,20.17
2017-11-12T07:59:37.882Z,20.97
2017-11-12T08:02:04.473Z,20.53
2017-11-12T08:04:31.041Z,19.37
2017-11-12T08:06:57.630Z,18.37
2017-11-12T08:09:24.207Z,18.37
2017-11-12T08:11:50.790Z,16.80
2017-11-12T08:14:17.375Z,20.17
2017-11-12T08:16:43.967Z,19.83
2017-11-12T08:19:10.551Z,18.83
2017-11-12T08:21:37.159Z,16.83
2017-11-12T08:24:03.734Z,21.43
2017-11-12T08:26:30.324Z,23.37
2017-11-12T08:28:56.902Z,18.97
2017-11-12T08:31:23.498Z,22.80
2017-11-12T08:33:50.073Z,18.93
2017-11-12T08:36:16.658Z,26.37
2017-11-12T08:38:43.250Z,19.37
2017-11-12T08:41:09.832Z,20.77
2017-11-12T08:43:36.439Z,22.73
2017-11-12T08:46:03.032Z,23.50
2017-11-12T08:48:29.597Z,28.77
2017-11-12T08:50:56.191Z,28.50
2017-11-12T08:53:22.774Z,30.93
2017-11-12T08:55:49.361Z,27.23
2017-11-12T08:58:15.943Z,22.70
2017-11-12T09:00:42.541Z,20.83
2017-11-12T09:03:09.121Z,22.23
2017-11-12T09:05:35.704Z,22.60
2017-11-12T09:08:02.294Z,21.97
2017-11-12T09:10:28.878Z,22.17
2017-11-12T09:12:55.471Z,24.20
2017-11-12T09:15:22.051Z,21.30
2017-11-12T09:17:48.654Z,21.37
2017-11-12T09:20:15.238Z,28.57
2017-11-12T09:22:41.825Z,30.03
2017-11-12T09:25:08.413Z,24.80
2017-11-12T09:27:34.994Z,22.20
2017-11-12T09:30:01.587Z,22.00
2017-11-12T09:32:28.162Z,25.50
2017-11-12T09:34:54.757Z,22.37
2017-11-12T09:37:21.334Z,24.77
2017-11-12T09:39:47.934Z,19.27
2017-11-12T09:42:14.523Z,27.33
2017-11-12T09:44:41.215Z,22.57
2017-11-12T09:47:07.801Z,22.60
2017-11-12T09:49:34.402Z,22.33
2017-11-12T09:52:01.158Z,25.40
2017-11-12T09:54:27.804Z,23.43
2017-11-12T09:56:54.405Z,37.13
2017-11-12T09:59:21.006Z,25.93
2017-11-12T10:01:47.797Z,24.57
2017-11-12T10:04:14.374Z,22.10
2017-11-12T10:06:41.139Z,21.90
2017-11-12T10:09:08.181Z,16.53
2017-11-12T10:11:34.957Z,16.83
2017-11-12T10:14:01.545Z,14.20
2017-11-12T10:16:28.146Z,14.20
2017-11-12T10:18:54.732Z,11.97
2017-11-12T10:21:21.318Z,13.20
2017-11-12T10:23:47.906Z,16.13
2017-11-12T10:26:14.486Z,13.30
2017-11-12T10:28:41.102Z,15.17
2017-11-12T10:31:07.670Z,15.90
2017-11-12T10:33:34.274Z,15.50
2017-11-12T10:36:00.874Z,12.67
2017-11-12T10:38:27.454Z,13.93
2017-11-12T10:40:54.047Z,12.57
2017-11-12T10:43:20.623Z,10.07
2017-11-12T10:45:47.245Z,10.13
2017-11-12T10:48:14.043Z,9.90
2017-11-12T10:50:40.972Z,14.70
2017-11-12T10:53:09.034Z,17.93
2017-11-12T10:55:35.627Z,11.70
2017-11-12T10:58:02.221Z,12.33
2017-11-12T11:00:28.801Z,10.30
2017-11-12T11:02:55.379Z,11.63
2017-11-12T11:05:21.958Z,13.43
2017-11-12T11:07:48.643Z,11.23
2017-11-12T11:10:15.223Z,11.70
2017-11-12T11:12:41.801Z,14.10
2017-11-12T11:15:08.390Z,9.47
2017-11-12T11:17:34.974Z,10.73
2017-11-12T11:20:01.554Z,12.60
2017-11-12T11:22:28.237Z,11.90
2017-11-12T11:24:54.798Z,15.17
2017-11-12T11:27:21.391Z,17.03
2017-11-12T11:29:47.965Z,24.70
2017-11-12T11:32:14.845Z,18.60
2017-11-12T11:34:41.419Z,19.13
2017-11-12T11:37:07.998Z,15.77
2017-11-12T11:39:34.592Z,21.77
2017-11-12T11:42:01.173Z,15.40
2017-11-12T11:44:27.758Z,11.00
2017-11-12T11:46:54.350Z,11.87
2017-11-12T11:49:20.926Z,15.33
2017-11-12T11:51:47.501Z,11.80
2017-11-12T11:54:14.100Z,12.70
2017-11-12T11:56:40.693Z,10.53
2017-11-12T11:59:07.314Z,15.60
2017-11-12T12:01:33.922Z,11.77
2017-11-12T12:04:00.505Z,12.50
2017-11-12T12:06:27.092Z,18.10
2017-11-12T12:08:53.657Z,9.90
2017-11-12T12:11:20.246Z,11.77
2017-11-12T12:13:46.823Z,13.20
2017-11-12T12:16:13.410Z,11.67
2017-11-12T12:18:40.007Z,12.50
2017-11-12T12:21:06.590Z,11.47
2017-11-12T12:23:34.045Z,11.60
2017-11-12T12:26:00.642Z,14.50
2017-11-12T12:28:27.314Z,13.80
2017-11-12T12:30:54.397Z,12.50
2017-11-12T12:33:21.053Z,11.53
2017-11-12T12:35:47.670Z,10.40
2017-11-12T12:38:14.242Z,13.63
2017-11-12T12:40:40.853Z,12.80
2017-11-12T12:43:07.442Z,8.80
2017-11-12T12:45:34.060Z,15.20
2017-11-12T12:48:00.639Z,22.27
2017-11-12T12:50:27.217Z,35.17
2017-11-12T12:52:53.806Z,15.17
2017-11-12T12:55:20.387Z,13.63
2017-11-12T12:57:46.977Z,12.50
2017-11-12T13:00:13.550Z,10.57
2017-11-12T13:02:40.147Z,14.40
2017-11-12T13:05:06.726Z,16.60
2017-11-12T13:07:33.302Z,13.37
2017-11-12T13:09:59.890Z,17.90
2017-11-12T13:12:26.470Z,17.57
2017-11-12T13:14:53.440Z,17.60
2017-11-12T13:17:20.097Z,19.13
2017-11-12T13:19:46.832Z,18.30
2017-11-12T13:22:13.422Z,18.17
2017-11-12T13:24:39.995Z,19.40
2017-11-12T13:27:06.593Z,21.20
2017-11-12T13:29:33.196Z,22.23
2017-11-12T13:31:59.777Z,21.67
2017-11-12T13:34:26.375Z,23.67
2017-11-12T13:36:53.066Z,19.97
2017-11-12T13:39:19.638Z,17.50
2017-11-12T13:41:46.230Z,22.17
2017-11-12T13:44:12.827Z,18.00
2017-11-12T13:46:39.419Z,19.43
2017-11-12T13:49:06.090Z,17.00
2017-11-12T13:51:32.674Z,20.03
2017-11-12T13:54:00.186Z,19.00
2017-11-12T13:56:26.765Z,21.83
2017-11-12T13:58:53.353Z,20.47
2017-11-12T14:01:19.944Z,20.07
2017-11-12T14:03:46.521Z,16.57
2017-11-12T14:06:13.123Z,18.40
2017-11-12T14:08:39.699Z,17.90
2017-11-12T14:11:06.300Z,16.53
2017-11-12T14:13:33.141Z,21.33
2017-11-12T14:15:59.718Z,19.00
2017-11-12T14:18:26.309Z,17.83
2017-11-12T14:20:52.912Z,18.43
2017-11-12T14:23:19.486Z,19.07
2017-11-12T14:25:46.085Z,14.43
2017-11-12T14:28:12.678Z,13.63
2017-11-12T14:30:39.253Z,11.40
2017-11-12T14:33:05.892Z,14.30
2017-11-12T14:35:32.494Z,15.90
2017-11-12T14:37:59.078Z,15.70
2017-11-12T14:40:25.665Z,15.17
2017-11-12T14:42:52.246Z,8.40
2017-11-12T14:45:18.834Z,12.97
2017-11-12T14:47:45.410Z,17.10
2017-11-12T14:50:11.991Z,14.60
2017-11-12T14:52:38.570Z,15.60
2017-11-12T14:55:05.228Z,8.27
2017-11-12T14:57:31.808Z,7.53
2017-11-12T14:59:58.366Z,7.90
2017-11-12T15:02:24.954Z,6.93
2017-11-12T15:04:51.531Z,9.60
2017-11-12T15:07:18.108Z,10.40
2017-11-12T15:09:44.683Z,8.70
2017-11-12T15:12:11.263Z,9.97
2017-11-12T15:14:37.843Z,8.83
2017-11-12T15:17:04.498Z,10.30
2017-11-12T15:19:31.061Z,8.63
2017-11-12T15:21:57.638Z,8.83
2017-11-12T15:24:24.232Z,8.30
2017-11-12T15:26:50.809Z,8.63
2017-11-12T15:29:17.416Z,10.80
2017-11-12T15:31:43.986Z,13.80
2017-11-12T15:34:10.570Z,9.27
2017-11-12T15:36:37.146Z,10.23
2017-11-12T15:39:03.736Z,10.90
2017-11-12T15:41:30.309Z,8.63
2017-11-12T15:43:56.893Z,10.00
2017-11-12T15:46:23.482Z,10.20
2017-11-12T15:48:50.057Z,9.50
2017-11-12T15:51:16.682Z,7.40
2017-11-12T15:53:43.247Z,10.13
2017-11-12T15:56:09.835Z,11.10
2017-11-12T15:58:36.414Z,11.20
2017-11-12T16:01:02.995Z,13.33
2017-11-12T16:03:29.580Z,13.57
2017-11-12T16:05:56.158Z,12.10
2017-11-12T16:08:22.754Z,15.40
2017-11-12T16:10:49.333Z,14.00
2017-11-12T16:13:15.943Z,12.80
2017-11-12T16:15:42.510Z,13.50
2017-11-12T16:18:09.103Z,13.03
2017-11-12T16:20:35.690Z,19.63
2017-11-12T16:23:02.270Z,16.00
2017-11-12T16:25:28.854Z,19.00
2017-11-12T16:27:55.439Z,15.87
2017-11-12T16:30:22.030Z,12.83
2017-11-12T16:32:48.614Z,15.50
2017-11-12T16:35:15.210Z,20.80
2017-11-12T16:37:41.812Z,18.67
2017-11-12T16:40:08.386Z,16.60
2017-11-12T16:42:34.987Z,14.40
2017-11-12T16:45:01.568Z,14.30
2017-11-12T16:47:28.171Z,13.80
2017-11-12T16:49:54.761Z,16.40
2017-11-12T16:52:21.338Z,12.53
2017-11-12T16:54:47.942Z,14.40
2017-11-12T16:57:14.523Z,13.67
2017-11-12T16:59:41.111Z,10.57
2017-11-12T17:02:07.694Z,12.00
2017-11-12T17:04:34.297Z,11.23
2017-11-12T17:07:00.891Z,13.70
2017-11-12T17:09:27.475Z,13.40
2017-11-12T17:11:54.062Z,12.27
2017-11-12T17:14:20.638Z,10.23
2017-11-12T17:16:47.223Z,8.50
2017-11-12T17:19:13.798Z,10.27
2017-11-12T17:21:40.374Z,12.37
2017-11-12T17:24:06.998Z,9.03
2017-11-12T17:26:33.581Z,10.80
2017-11-12T17:29:00.196Z,8.23
2017-11-12T17:31:28.502Z,8.40
2017-11-12T17:33:56.039Z,11.83
2017-11-12T17:36:22.629Z,10.57
2017-11-12T17:38:49.197Z,9.50
2017-11-12T17:41:15.791Z,13.27
2017-11-12T17:43:42.397Z,8.87
2017-11-12T17:46:08.990Z,9.47
2017-11-12T17:48:35.618Z,9.33
2017-11-12T17:51:02.196Z,10.67
2017-11-12T17:53:28.778Z,12.93
2017-11-12T17:55:55.370Z,11.10
2017-11-12T17:58:21.946Z,10.97
2017-11-12T18:00:48.523Z,13.90
2017-11-12T18:03:15.160Z,8.33
2017-11-12T18:05:41.730Z,9.70
2017-11-12T18:08:08.432Z,9.60
2017-11-12T18:10:34.995Z,9.53
2017-11-12T18:13:01.573Z,15.03
2017-11-12T18:15:28.159Z,14.27
2017-11-12T18:17:54.742Z,16.43
2017-11-12T18:20:21.348Z,12.40
2017-11-12T18:22:47.927Z,12.20
2017-11-12T18:25:14.501Z,10.67
2017-11-12T18:27:41.089Z,11.07
2017-11-12T18:30:07.670Z,13.13
2017-11-12T18:32:34.271Z,12.97
2017-11-12T18:35:00.843Z,12.93
2017-11-12T18:37:27.437Z,14.93
2017-11-12T18:39:54.010Z,12.20
2017-11-12T18:42:20.601Z,12.60
2017-11-12T18:44:47.187Z,13.50
2017-11-12T18:47:13.763Z,11.53
2017-11-12T18:49:40.360Z,15.07
2017-11-12T18:52:06.978Z,13.60
2017-11-12T18:54:34.197Z,12.70
2017-11-12T18:57:08.586Z,13.20
2017-11-12T18:59:40.186Z,16.73
2017-11-12T19:02:13.284Z,12.57
2017-11-12T19:04:41.658Z,13.30
2017-11-12T19:07:13.889Z,10.73
2017-11-12T19:09:40.462Z,15.50
2017-11-12T19:12:08.706Z,12.57
2017-11-12T19:14:35.290Z,12.03
2017-11-12T19:17:05.729Z,14.67
2017-11-12T19:19:43.122Z,12.30
2017-11-12T19:22:13.239Z,10.00
2017-11-12T19:24:41.647Z,11.67
2017-11-12T19:27:18.134Z,15.20
2017-11-12T19:29:45.628Z,12.10
2017-11-12T19:32:12.235Z,13.53
2017-11-12T19:34:38.826Z,12.00
2017-11-12T19:37:05.424Z,13.17
2017-11-12T19:39:32.008Z,12.07
2017-11-12T19:41:58.596Z,13.20
2017-11-12T19:44:25.186Z,15.27
2017-11-12T19:46:52.770Z,13.10
2017-11-12T19:49:19.352Z,12.07
2017-11-12T19:51:45.937Z,12.00
2017-11-12T19:54:12.518Z,11.20
2017-11-12T19:56:39.115Z,13.90
2017-11-12T19:59:05.754Z,13.30
2017-11-12T20:01:32.355Z,15.70
2017-11-12T20:03:58.965Z,13.93
2017-11-12T20:06:25.558Z,13.83
2017-11-12T20:08:52.165Z,13.80
2017-11-12T20:11:18.745Z,16.70
2017-11-12T20:13:45.341Z,12.80
2017-11-12T20:16:11.917Z,13.90
2017-11-12T20:18:38.523Z,14.33
2017-11-12T20:21:05.119Z,15.03
2017-11-12T20:23:31.695Z,13.50
2017-11-12T20:25:58.279Z,12.10
2017-11-12T20:28:24.856Z,11.93
2017-11-12T20:30:51.485Z,11.73
2017-11-12T20:33:18.087Z,12.87
2017-11-12T20:35:44.667Z,15.43
2017-11-12T20:38:11.254Z,15.30
2017-11-12T20:40:37.880Z,14.43
2017-11-12T20:43:04.474Z,16.00
2017-11-12T20:45:31.057Z,15.27
2017-11-12T20:47:57.651Z,16.23
2017-11-12T20:50:24.229Z,15.23
2017-11-12T20:52:50.819Z,13.83
2017-11-12T20:55:17.395Z,12.43
2017-11-12T20:57:43.978Z,13.80
2017-11-12T21:00:10.566Z,14.10
2017-11-12T21:02:38.116Z,15.63
2017-11-12T21:05:04.725Z,14.17
2017-11-12T21:07:31.301Z,12.77
2017-11-12T21:09:57.880Z,14.73
2017-11-12T21:12:24.474Z,15.03
2017-11-12T21:14:51.058Z,18.50
2017-11-12T21:17:17.642Z,14.97
2017-11-12T21:19:46.959Z,15.10
2017-11-12T21:22:17.210Z,16.90
2017-11-12T21:24:43.790Z,17.00
2017-11-12T21:27:12.838Z,19.57
2017-11-12T21:29:42.019Z,17.77
2017-11-12T21:32:09.542Z,21.17
2017-11-12T21:34:39.850Z,21.50
2017-11-12T21:37:06.518Z,20.70
2017-11-12T21:39:33.291Z,20.27
2017-11-12T21:41:59.871Z,19.00
2017-11-12T21:44:26.470Z,20.77
2017-11-12T21:46:53.059Z,23.73
2017-11-12T21:49:19.646Z,20.70
2017-11-12T21:54:19.383Z,21.73
2017-11-12T21:56:45.979Z,22.40
2017-11-12T21:59:12.596Z,22.87
2017-11-12T22:01:39.150Z,23.10
2017-11-12T22:04:05.740Z,24.40
2017-11-12T22:06:32.336Z,19.67
2017-11-12T22:08:58.923Z,24.63
2017-11-12T22:11:25.516Z,21.63
2017-11-12T22:13:52.100Z,18.77
2017-11-12T22:16:18.695Z,19.73
2017-11-12T22:18:45.278Z,18.93
2017-11-12T22:21:11.871Z,18.80
2017-11-12T22:23:38.470Z,19.60
2017-11-12T22:26:05.062Z,20.67
2017-11-12T22:28:31.660Z,20.90
2017-11-12T22:30:58.242Z,24.57
2017-11-12T22:33:24.823Z,25.23
2017-11-12T22:35:51.416Z,24.47
2017-11-12T22:38:17.999Z,23.60
2017-11-12T22:40:44.617Z,25.73
2017-11-12T22:43:11.211Z,25.00
2017-11-12T22:45:37.794Z,29.13
2017-11-12T22:48:04.395Z,25.10
2017-11-12T22:50:30.979Z,28.47
2017-11-12T22:52:57.569Z,25.43
2017-11-12T22:55:24.152Z,25.57
2017-11-12T22:57:50.766Z,26.00
2017-11-12T23:00:17.342Z,22.00
2017-11-12T23:02:43.922Z,31.40
2017-11-12T23:05:10.526Z,24.37
2017-11-12T23:07:37.098Z,22.93
2017-11-12T23:10:03.691Z,27.57
2017-11-12T23:12:30.282Z,26.67
2017-11-12T23:14:56.872Z,27.37
2017-11-12T23:17:23.459Z,23.97
2017-11-12T23:19:50.041Z,23.77
2017-11-12T23:22:16.630Z,22.10
2017-11-12T23:24:43.210Z,22.73
2017-11-12T23:27:09.803Z,24.00
2017-11-12T23:29:36.388Z,23.57
2017-11-12T23:32:03.002Z,23.63
2017-11-12T23:34:29.591Z,23.00
2017-11-12T23:36:56.189Z,23.97
2017-11-12T23:39:22.757Z,27.83
2017-11-12T23:41:49.403Z,25.73
2017-11-12T23:44:16.140Z,22.30
2017-11-12T23:46:42.843Z,25.23
2017-11-12T23:49:09.421Z,27.33
2017-11-12T23:51:35.998Z,27.17
2017-11-12T23:54:02.586Z,26.03
2017-11-12T23:56:29.171Z,22.63
2017-11-12T23:58:55.762Z,23.53
